Ostaskov, Russia
Current Conditions -  °F | °C
As of 3:00 PM on Saturday 20 Dec 2014 (Local Time) from UUBW Reporting Station
Overcast Overcast  
Wind Chill: 37°   Ceiling: 10000
Heat Index: 41°   Visibility: 6mi
Dew Point: 37°   Wind: 7mph
Humidity: 87%   Direction: 250°WSW
Pressure: 29.38"   Gusts: NA
Location:  57.16°N, 33.11°E
Report Text: UUBW 201200Z 25003MPS 9999 SCT026 OVC100 05/03 Q0995 NOSIG RMKSC0.45
Loading
Personal Weather Stations






























Interactive Weather Map New forecast layout! Learn more

10-Day Weather Forecast

Advertisements
Track Severe Weather on mobile